sensor_id;sensor_type;location;lat;lon;timestamp;P1;durP1;ratioP1;P2;durP2;ratioP2
12986;SDS011;58897;51.960;5.582;2023-11-18T00:01:59;22.53;;;11.83;;
12986;SDS011;58897;51.960;5.582;2023-11-18T00:04:25;26.90;;;12.17;;
12986;SDS011;58897;51.960;5.582;2023-11-18T00:06:52;29.77;;;13.73;;
12986;SDS011;58897;51.960;5.582;2023-11-18T00:09:20;26.93;;;12.10;;
12986;SDS011;58897;51.960;5.582;2023-11-18T00:11:48;25.60;;;12.47;;
12986;SDS011;58897;51.960;5.582;2023-11-18T00:14:15;23.40;;;12.20;;
12986;SDS011;58897;51.960;5.582;2023-11-18T00:16:42;26.53;;;12.67;;
12986;SDS011;58897;51.960;5.582;2023-11-18T00:19:08;23.57;;;11.57;;
12986;SDS011;58897;51.960;5.582;2023-11-18T00:21:35;26.43;;;11.77;;
12986;SDS011;58897;51.960;5.582;2023-11-18T00:24:03;25.70;;;11.77;;
12986;SDS011;58897;51.960;5.582;2023-11-18T00:26:31;24.67;;;13.03;;
12986;SDS011;58897;51.960;5.582;2023-11-18T00:28:58;26.70;;;12.20;;
12986;SDS011;58897;51.960;5.582;2023-11-18T00:31:27;23.93;;;12.03;;
12986;SDS011;58897;51.960;5.582;2023-11-18T00:33:54;23.17;;;11.53;;
12986;SDS011;58897;51.960;5.582;2023-11-18T00:36:20;25.23;;;12.93;;
12986;SDS011;58897;51.960;5.582;2023-11-18T00:38:47;23.50;;;12.07;;
12986;SDS011;58897;51.960;5.582;2023-11-18T00:41:15;24.13;;;12.07;;
12986;SDS011;58897;51.960;5.582;2023-11-18T00:43:43;30.67;;;12.93;;
12986;SDS011;58897;51.960;5.582;2023-11-18T00:46:10;25.13;;;11.90;;
12986;SDS011;58897;51.960;5.582;2023-11-18T00:48:37;24.87;;;13.30;;
12986;SDS011;58897;51.960;5.582;2023-11-18T00:51:05;24.73;;;12.33;;
12986;SDS011;58897;51.960;5.582;2023-11-18T00:53:32;27.27;;;13.37;;
12986;SDS011;58897;51.960;5.582;2023-11-18T00:55:58;31.17;;;14.13;;
12986;SDS011;58897;51.960;5.582;2023-11-18T00:58:25;25.03;;;12.53;;
12986;SDS011;58897;51.960;5.582;2023-11-18T01:00:52;25.53;;;12.53;;
12986;SDS011;58897;51.960;5.582;2023-11-18T01:03:19;34.57;;;14.73;;
12986;SDS011;58897;51.960;5.582;2023-11-18T01:05:45;29.73;;;13.30;;
12986;SDS011;58897;51.960;5.582;2023-11-18T01:08:12;20.87;;;12.03;;
12986;SDS011;58897;51.960;5.582;2023-11-18T01:10:39;23.03;;;12.90;;
12986;SDS011;58897;51.960;5.582;2023-11-18T01:13:06;29.57;;;13.13;;
12986;SDS011;58897;51.960;5.582;2023-11-18T01:15:32;26.47;;;13.90;;
12986;SDS011;58897;51.960;5.582;2023-11-18T01:17:59;25.30;;;13.07;;
12986;SDS011;58897;51.960;5.582;2023-11-18T01:20:26;26.30;;;13.33;;
12986;SDS011;58897;51.960;5.582;2023-11-18T01:22:52;29.37;;;14.23;;
12986;SDS011;58897;51.960;5.582;2023-11-18T01:25:19;25.27;;;12.77;;
12986;SDS011;58897;51.960;5.582;2023-11-18T01:27:45;25.93;;;12.40;;
12986;SDS011;58897;51.960;5.582;2023-11-18T01:30:15;24.27;;;12.17;;
12986;SDS011;58897;51.960;5.582;2023-11-18T01:32:42;27.77;;;11.90;;
12986;SDS011;58897;51.960;5.582;2023-11-18T01:35:09;22.37;;;11.93;;
12986;SDS011;58897;51.960;5.582;2023-11-18T01:37:37;22.70;;;12.00;;
12986;SDS011;58897;51.960;5.582;2023-11-18T01:40:05;25.77;;;12.73;;
12986;SDS011;58897;51.960;5.582;2023-11-18T01:42:34;25.30;;;12.67;;
12986;SDS011;58897;51.960;5.582;2023-11-18T01:45:01;33.87;;;14.70;;
12986;SDS011;58897;51.960;5.582;2023-11-18T01:47:33;22.37;;;11.30;;
12986;SDS011;58897;51.960;5.582;2023-11-18T01:50:00;29.13;;;13.67;;
12986;SDS011;58897;51.960;5.582;2023-11-18T01:52:28;28.37;;;14.40;;
12986;SDS011;58897;51.960;5.582;2023-11-18T01:54:57;29.33;;;13.30;;
12986;SDS011;58897;51.960;5.582;2023-11-18T01:57:25;29.47;;;12.70;;
12986;SDS011;58897;51.960;5.582;2023-11-18T01:59:53;27.67;;;14.17;;
12986;SDS011;58897;51.960;5.582;2023-11-18T02:02:20;30.30;;;13.70;;
12986;SDS011;58897;51.960;5.582;2023-11-18T02:04:48;28.87;;;14.17;;
12986;SDS011;58897;51.960;5.582;2023-11-18T02:07:15;26.30;;;13.03;;
12986;SDS011;58897;51.960;5.582;2023-11-18T02:09:42;26.37;;;13.93;;
12986;SDS011;58897;51.960;5.582;2023-11-18T02:14:52;22.10;;;12.63;;
12986;SDS011;58897;51.960;5.582;2023-11-18T02:17:21;26.83;;;12.80;;
12986;SDS011;58897;51.960;5.582;2023-11-18T02:19:51;27.70;;;12.27;;
12986;SDS011;58897;51.960;5.582;2023-11-18T02:22:19;20.67;;;11.77;;
12986;SDS011;58897;51.960;5.582;2023-11-18T02:24:48;22.83;;;11.70;;
12986;SDS011;58897;51.960;5.582;2023-11-18T02:27:15;23.50;;;11.97;;
12986;SDS011;58897;51.960;5.582;2023-11-18T02:29:43;18.43;;;10.63;;
12986;SDS011;58897;51.960;5.582;2023-11-18T02:32:18;23.57;;;12.33;;
12986;SDS011;58897;51.960;5.582;2023-11-18T02:35:14;27.77;;;12.60;;
12986;SDS011;58897;51.960;5.582;2023-11-18T02:37:50;24.43;;;12.07;;
12986;SDS011;58897;51.960;5.582;2023-11-18T02:40:34;19.87;;;11.70;;
12986;SDS011;58897;51.960;5.582;2023-11-18T02:43:04;23.10;;;10.87;;
12986;SDS011;58897;51.960;5.582;2023-11-18T02:45:31;23.90;;;11.27;;
12986;SDS011;58897;51.960;5.582;2023-11-18T02:48:00;27.07;;;12.10;;
12986;SDS011;58897;51.960;5.582;2023-11-18T02:50:27;27.03;;;12.43;;
12986;SDS011;58897;51.960;5.582;2023-11-18T02:52:53;21.53;;;12.00;;
12986;SDS011;58897;51.960;5.582;2023-11-18T02:55:20;23.83;;;11.53;;
12986;SDS011;58897;51.960;5.582;2023-11-18T02:57:50;25.60;;;12.17;;
12986;SDS011;58897;51.960;5.582;2023-11-18T03:00:18;23.90;;;12.50;;
12986;SDS011;58897;51.960;5.582;2023-11-18T03:02:48;20.83;;;11.50;;
12986;SDS011;58897;51.960;5.582;2023-11-18T03:05:18;23.20;;;12.13;;
12986;SDS011;58897;51.960;5.582;2023-11-18T03:07:45;26.67;;;11.50;;
12986;SDS011;58897;51.960;5.582;2023-11-18T03:10:16;22.43;;;10.67;;
12986;SDS011;58897;51.960;5.582;2023-11-18T03:12:48;22.67;;;11.87;;
12986;SDS011;58897;51.960;5.582;2023-11-18T03:15:19;25.23;;;12.70;;
12986;SDS011;58897;51.960;5.582;2023-11-18T03:17:48;24.30;;;12.73;;
12986;SDS011;58897;51.960;5.582;2023-11-18T03:20:21;36.10;;;14.37;;
12986;SDS011;58897;51.960;5.582;2023-11-18T03:22:50;25.43;;;12.87;;
12986;SDS011;58897;51.960;5.582;2023-11-18T03:25:18;23.27;;;11.70;;
12986;SDS011;58897;51.960;5.582;2023-11-18T03:27:48;21.83;;;10.97;;
12986;SDS011;58897;51.960;5.582;2023-11-18T03:30:15;22.70;;;11.73;;
12986;SDS011;58897;51.960;5.582;2023-11-18T03:32:43;26.60;;;12.10;;
12986;SDS011;58897;51.960;5.582;2023-11-18T03:35:10;25.07;;;11.67;;
12986;SDS011;58897;51.960;5.582;2023-11-18T03:37:38;22.47;;;12.27;;
12986;SDS011;58897;51.960;5.582;2023-11-18T03:40:09;23.73;;;11.37;;
12986;SDS011;58897;51.960;5.582;2023-11-18T03:42:38;24.20;;;11.93;;
12986;SDS011;58897;51.960;5.582;2023-11-18T03:45:06;26.27;;;12.83;;
12986;SDS011;58897;51.960;5.582;2023-11-18T03:47:33;22.57;;;10.63;;
12986;SDS011;58897;51.960;5.582;2023-11-18T03:50:00;27.77;;;12.10;;
12986;SDS011;58897;51.960;5.582;2023-11-18T03:52:27;28.67;;;13.60;;
12986;SDS011;58897;51.960;5.582;2023-11-18T03:54:55;19.87;;;11.07;;
12986;SDS011;58897;51.960;5.582;2023-11-18T03:57:22;26.77;;;12.03;;
12986;SDS011;58897;51.960;5.582;2023-11-18T03:59:48;25.03;;;11.77;;
12986;SDS011;58897;51.960;5.582;2023-11-18T04:02:16;31.67;;;14.30;;
12986;SDS011;58897;51.960;5.582;2023-11-18T04:04:43;29.70;;;12.60;;
12986;SDS011;58897;51.960;5.582;2023-11-18T04:07:09;25.00;;;12.37;;
12986;SDS011;58897;51.960;5.582;2023-11-18T04:09:36;28.73;;;13.17;;
12986;SDS011;58897;51.960;5.582;2023-11-18T04:12:02;30.23;;;13.60;;
12986;SDS011;58897;51.960;5.582;2023-11-18T04:14:29;28.53;;;13.87;;
12986;SDS011;58897;51.960;5.582;2023-11-18T04:16:56;25.63;;;13.07;;
12986;SDS011;58897;51.960;5.582;2023-11-18T04:19:24;24.13;;;12.13;;
12986;SDS011;58897;51.960;5.582;2023-11-18T04:21:50;29.43;;;13.87;;
12986;SDS011;58897;51.960;5.582;2023-11-18T04:24:17;33.37;;;14.30;;
12986;SDS011;58897;51.960;5.582;2023-11-18T04:26:43;27.13;;;13.03;;
12986;SDS011;58897;51.960;5.582;2023-11-18T04:29:10;24.87;;;12.90;;
12986;SDS011;58897;51.960;5.582;2023-11-18T04:31:37;22.63;;;12.70;;
12986;SDS011;58897;51.960;5.582;2023-11-18T04:34:03;25.57;;;12.73;;
12986;SDS011;58897;51.960;5.582;2023-11-18T04:36:33;21.93;;;11.30;;
12986;SDS011;58897;51.960;5.582;2023-11-18T04:38:59;29.33;;;12.97;;
12986;SDS011;58897;51.960;5.582;2023-11-18T04:41:26;23.87;;;12.07;;
12986;SDS011;58897;51.960;5.582;2023-11-18T04:43:52;24.90;;;11.73;;
12986;SDS011;58897;51.960;5.582;2023-11-18T04:46:19;27.90;;;12.87;;
12986;SDS011;58897;51.960;5.582;2023-11-18T04:48:48;20.73;;;11.33;;
12986;SDS011;58897;51.960;5.582;2023-11-18T04:51:15;23.30;;;11.43;;
12986;SDS011;58897;51.960;5.582;2023-11-18T04:53:43;28.20;;;12.47;;
12986;SDS011;58897;51.960;5.582;2023-11-18T04:56:11;26.57;;;12.63;;
12986;SDS011;58897;51.960;5.582;2023-11-18T04:58:38;22.23;;;11.33;;
12986;SDS011;58897;51.960;5.582;2023-11-18T05:01:06;22.87;;;10.83;;
12986;SDS011;58897;51.960;5.582;2023-11-18T05:03:32;22.10;;;10.97;;
12986;SDS011;58897;51.960;5.582;2023-11-18T05:05:59;21.43;;;11.27;;
12986;SDS011;58897;51.960;5.582;2023-11-18T05:08:26;23.90;;;12.27;;
12986;SDS011;58897;51.960;5.582;2023-11-18T05:10:52;23.27;;;11.10;;
12986;SDS011;58897;51.960;5.582;2023-11-18T05:13:19;27.50;;;11.80;;
12986;SDS011;58897;51.960;5.582;2023-11-18T05:15:46;25.13;;;11.30;;
12986;SDS011;58897;51.960;5.582;2023-11-18T05:18:14;26.40;;;11.40;;
12986;SDS011;58897;51.960;5.582;2023-11-18T05:20:42;24.03;;;11.07;;
12986;SDS011;58897;51.960;5.582;2023-11-18T05:23:09;22.27;;;11.90;;
12986;SDS011;58897;51.960;5.582;2023-11-18T05:25:37;21.60;;;10.40;;
12986;SDS011;58897;51.960;5.582;2023-11-18T05:28:05;23.53;;;11.37;;
12986;SDS011;58897;51.960;5.582;2023-11-18T05:30:35;25.57;;;10.57;;
12986;SDS011;58897;51.960;5.582;2023-11-18T05:33:02;24.60;;;11.63;;
12986;SDS011;58897;51.960;5.582;2023-11-18T05:35:32;24.03;;;11.80;;
12986;SDS011;58897;51.960;5.582;2023-11-18T05:37:59;21.07;;;10.53;;
12986;SDS011;58897;51.960;5.582;2023-11-18T05:40:26;23.43;;;11.93;;
12986;SDS011;58897;51.960;5.582;2023-11-18T05:42:55;28.07;;;12.67;;
12986;SDS011;58897;51.960;5.582;2023-11-18T05:45:22;28.17;;;12.90;;
12986;SDS011;58897;51.960;5.582;2023-11-18T05:47:55;23.60;;;11.93;;
12986;SDS011;58897;51.960;5.582;2023-11-18T05:50:22;26.10;;;11.93;;
12986;SDS011;58897;51.960;5.582;2023-11-18T05:52:50;30.10;;;13.13;;
12986;SDS011;58897;51.960;5.582;2023-11-18T05:55:17;27.67;;;11.87;;
12986;SDS011;58897;51.960;5.582;2023-11-18T05:57:44;28.73;;;12.40;;
12986;SDS011;58897;51.960;5.582;2023-11-18T06:00:14;30.57;;;11.90;;
12986;SDS011;58897;51.960;5.582;2023-11-18T06:02:50;26.07;;;11.10;;
12986;SDS011;58897;51.960;5.582;2023-11-18T06:05:18;27.90;;;11.67;;
12986;SDS011;58897;51.960;5.582;2023-11-18T06:07:44;28.23;;;12.73;;
12986;SDS011;58897;51.960;5.582;2023-11-18T06:10:11;25.40;;;12.23;;
12986;SDS011;58897;51.960;5.582;2023-11-18T06:12:38;27.13;;;9.13;;
12986;SDS011;58897;51.960;5.582;2023-11-18T06:15:07;25.33;;;11.77;;
12986;SDS011;58897;51.960;5.582;2023-11-18T06:17:35;22.17;;;12.07;;
12986;SDS011;58897;51.960;5.582;2023-11-18T06:20:03;23.77;;;12.07;;
12986;SDS011;58897;51.960;5.582;2023-11-18T06:22:32;23.47;;;11.90;;
12986;SDS011;58897;51.960;5.582;2023-11-18T06:24:59;24.23;;;11.93;;
12986;SDS011;58897;51.960;5.582;2023-11-18T06:27:25;22.57;;;11.90;;
12986;SDS011;58897;51.960;5.582;2023-11-18T06:29:52;28.03;;;12.87;;
12986;SDS011;58897;51.960;5.582;2023-11-18T06:32:21;22.43;;;10.80;;
12986;SDS011;58897;51.960;5.582;2023-11-18T06:34:48;25.33;;;11.90;;
12986;SDS011;58897;51.960;5.582;2023-11-18T06:37:15;25.50;;;11.57;;
12986;SDS011;58897;51.960;5.582;2023-11-18T06:39:43;21.87;;;11.00;;
12986;SDS011;58897;51.960;5.582;2023-11-18T06:42:15;20.40;;;11.13;;
12986;SDS011;58897;51.960;5.582;2023-11-18T06:44:41;25.00;;;11.37;;
12986;SDS011;58897;51.960;5.582;2023-11-18T06:47:08;21.23;;;11.50;;
12986;SDS011;58897;51.960;5.582;2023-11-18T06:49:34;24.10;;;11.23;;
12986;SDS011;58897;51.960;5.582;2023-11-18T06:52:01;21.20;;;10.77;;
12986;SDS011;58897;51.960;5.582;2023-11-18T06:54:31;21.43;;;10.50;;
12986;SDS011;58897;51.960;5.582;2023-11-18T06:56:59;23.63;;;11.23;;
12986;SDS011;58897;51.960;5.582;2023-11-18T06:59:26;22.53;;;10.03;;
12986;SDS011;58897;51.960;5.582;2023-11-18T07:01:52;19.10;;;9.07;;
12986;SDS011;58897;51.960;5.582;2023-11-18T07:04:19;20.20;;;10.30;;
12986;SDS011;58897;51.960;5.582;2023-11-18T07:06:46;17.23;;;9.33;;
12986;SDS011;58897;51.960;5.582;2023-11-18T07:09:12;21.57;;;10.13;;
12986;SDS011;58897;51.960;5.582;2023-11-18T07:11:43;19.70;;;10.20;;
12986;SDS011;58897;51.960;5.582;2023-11-18T07:14:10;16.83;;;9.20;;
12986;SDS011;58897;51.960;5.582;2023-11-18T07:16:38;19.83;;;9.80;;
12986;SDS011;58897;51.960;5.582;2023-11-18T07:19:06;18.23;;;9.47;;
12986;SDS011;58897;51.960;5.582;2023-11-18T07:21:33;19.93;;;10.53;;
12986;SDS011;58897;51.960;5.582;2023-11-18T07:24:00;18.83;;;10.37;;
12986;SDS011;58897;51.960;5.582;2023-11-18T07:26:28;23.07;;;9.90;;
12986;SDS011;58897;51.960;5.582;2023-11-18T07:28:55;22.10;;;10.80;;
12986;SDS011;58897;51.960;5.582;2023-11-18T07:31:22;22.90;;;10.40;;
12986;SDS011;58897;51.960;5.582;2023-11-18T07:33:49;19.20;;;8.97;;
12986;SDS011;58897;51.960;5.582;2023-11-18T07:36:16;15.23;;;8.57;;
12986;SDS011;58897;51.960;5.582;2023-11-18T07:38:46;16.20;;;8.23;;
12986;SDS011;58897;51.960;5.582;2023-11-18T07:41:13;16.63;;;8.70;;
12986;SDS011;58897;51.960;5.582;2023-11-18T07:43:50;13.83;;;8.63;;
12986;SDS011;58897;51.960;5.582;2023-11-18T07:46:19;19.30;;;9.87;;
12986;SDS011;58897;51.960;5.582;2023-11-18T07:48:49;16.53;;;8.37;;
12986;SDS011;58897;51.960;5.582;2023-11-18T07:51:20;19.30;;;9.47;;
12986;SDS011;58897;51.960;5.582;2023-11-18T07:53:49;14.17;;;7.73;;
12986;SDS011;58897;51.960;5.582;2023-11-18T07:56:16;18.63;;;7.60;;
12986;SDS011;58897;51.960;5.582;2023-11-18T07:58:43;15.60;;;9.27;;
12986;SDS011;58897;51.960;5.582;2023-11-18T08:01:14;20.30;;;8.80;;
12986;SDS011;58897;51.960;5.582;2023-11-18T08:03:42;22.13;;;9.97;;
12986;SDS011;58897;51.960;5.582;2023-11-18T08:06:10;15.57;;;8.30;;
12986;SDS011;58897;51.960;5.582;2023-11-18T08:08:38;15.67;;;8.07;;
12986;SDS011;58897;51.960;5.582;2023-11-18T08:11:05;17.33;;;8.47;;
12986;SDS011;58897;51.960;5.582;2023-11-18T08:13:32;23.17;;;9.23;;
12986;SDS011;58897;51.960;5.582;2023-11-18T08:15:59;16.83;;;8.47;;
12986;SDS011;58897;51.960;5.582;2023-11-18T08:18:27;13.53;;;7.67;;
12986;SDS011;58897;51.960;5.582;2023-11-18T08:20:57;21.57;;;7.87;;
12986;SDS011;58897;51.960;5.582;2023-11-18T08:23:26;26.23;;;10.10;;
12986;SDS011;58897;51.960;5.582;2023-11-18T08:25:54;23.33;;;9.17;;
12986;SDS011;58897;51.960;5.582;2023-11-18T08:28:21;18.43;;;8.20;;
12986;SDS011;58897;51.960;5.582;2023-11-18T08:30:48;16.80;;;8.57;;
12986;SDS011;58897;51.960;5.582;2023-11-18T08:33:17;21.23;;;8.37;;
12986;SDS011;58897;51.960;5.582;2023-11-18T08:35:45;17.30;;;8.27;;
12986;SDS011;58897;51.960;5.582;2023-11-18T08:38:12;15.37;;;8.43;;
12986;SDS011;58897;51.960;5.582;2023-11-18T08:40:39;18.07;;;7.70;;
12986;SDS011;58897;51.960;5.582;2023-11-18T08:43:07;20.97;;;9.00;;
12986;SDS011;58897;51.960;5.582;2023-11-18T08:45:34;18.37;;;8.17;;
12986;SDS011;58897;51.960;5.582;2023-11-18T08:48:03;15.73;;;8.10;;
12986;SDS011;58897;51.960;5.582;2023-11-18T08:50:35;18.47;;;7.67;;
12986;SDS011;58897;51.960;5.582;2023-11-18T08:53:03;15.17;;;7.20;;
12986;SDS011;58897;51.960;5.582;2023-11-18T08:55:36;16.57;;;6.70;;
12986;SDS011;58897;51.960;5.582;2023-11-18T08:58:10;18.63;;;7.07;;
12986;SDS011;58897;51.960;5.582;2023-11-18T09:01:00;15.03;;;7.57;;
12986;SDS011;58897;51.960;5.582;2023-11-18T09:03:42;15.03;;;7.23;;
12986;SDS011;58897;51.960;5.582;2023-11-18T09:06:10;17.87;;;7.83;;
12986;SDS011;58897;51.960;5.582;2023-11-18T09:08:52;15.43;;;6.97;;
12986;SDS011;58897;51.960;5.582;2023-11-18T09:11:21;17.50;;;7.20;;
12986;SDS011;58897;51.960;5.582;2023-11-18T09:13:50;12.23;;;6.57;;
12986;SDS011;58897;51.960;5.582;2023-11-18T09:16:20;13.60;;;6.37;;
12986;SDS011;58897;51.960;5.582;2023-11-18T09:18:57;16.33;;;7.97;;
12986;SDS011;58897;51.960;5.582;2023-11-18T09:21:33;18.63;;;7.40;;
12986;SDS011;58897;51.960;5.582;2023-11-18T09:24:02;11.27;;;5.70;;
12986;SDS011;58897;51.960;5.582;2023-11-18T09:26:37;15.27;;;6.93;;
12986;SDS011;58897;51.960;5.582;2023-11-18T09:29:04;14.10;;;6.70;;
12986;SDS011;58897;51.960;5.582;2023-11-18T09:31:35;11.60;;;6.10;;
12986;SDS011;58897;51.960;5.582;2023-11-18T09:34:03;16.00;;;6.90;;
12986;SDS011;58897;51.960;5.582;2023-11-18T09:36:33;13.43;;;6.40;;
12986;SDS011;58897;51.960;5.582;2023-11-18T09:39:00;17.67;;;6.73;;
12986;SDS011;58897;51.960;5.582;2023-11-18T09:41:32;12.10;;;5.63;;
12986;SDS011;58897;51.960;5.582;2023-11-18T09:44:01;15.03;;;5.70;;
12986;SDS011;58897;51.960;5.582;2023-11-18T09:46:29;12.00;;;6.10;;
12986;SDS011;58897;51.960;5.582;2023-11-18T09:49:19;15.17;;;6.57;;
12986;SDS011;58897;51.960;5.582;2023-11-18T09:51:56;18.00;;;5.57;;
12986;SDS011;58897;51.960;5.582;2023-11-18T09:54:30;14.73;;;5.20;;
12986;SDS011;58897;51.960;5.582;2023-11-18T10:02:24;12.40;;;5.77;;
12986;SDS011;58897;51.960;5.582;2023-11-18T10:04:52;22.97;;;6.13;;
12986;SDS011;58897;51.960;5.582;2023-11-18T10:07:24;10.13;;;4.63;;
12986;SDS011;58897;51.960;5.582;2023-11-18T10:09:56;18.17;;;5.93;;
12986;SDS011;58897;51.960;5.582;2023-11-18T10:12:26;16.00;;;6.17;;
12986;SDS011;58897;51.960;5.582;2023-11-18T10:14:56;22.73;;;7.47;;
12986;SDS011;58897;51.960;5.582;2023-11-18T10:17:25;12.43;;;5.20;;
12986;SDS011;58897;51.960;5.582;2023-11-18T10:19:59;10.60;;;5.10;;
12986;SDS011;58897;51.960;5.582;2023-11-18T10:22:29;12.57;;;5.50;;
12986;SDS011;58897;51.960;5.582;2023-11-18T10:24:58;13.13;;;5.30;;
12986;SDS011;58897;51.960;5.582;2023-11-18T10:27:28;11.87;;;5.17;;
12986;SDS011;58897;51.960;5.582;2023-11-18T10:30:01;10.43;;;5.63;;
12986;SDS011;58897;51.960;5.582;2023-11-18T10:32:29;9.30;;;5.13;;
12986;SDS011;58897;51.960;5.582;2023-11-18T10:35:03;11.17;;;5.80;;
12986;SDS011;58897;51.960;5.582;2023-11-18T10:37:36;10.73;;;5.20;;
12986;SDS011;58897;51.960;5.582;2023-11-18T10:40:12;15.97;;;5.67;;
12986;SDS011;58897;51.960;5.582;2023-11-18T10:42:41;12.10;;;5.67;;
12986;SDS011;58897;51.960;5.582;2023-11-18T10:45:11;12.23;;;5.40;;
12986;SDS011;58897;51.960;5.582;2023-11-18T10:47:42;8.50;;;5.37;;
12986;SDS011;58897;51.960;5.582;2023-11-18T10:50:09;14.03;;;4.97;;
12986;SDS011;58897;51.960;5.582;2023-11-18T10:52:37;10.20;;;5.57;;
12986;SDS011;58897;51.960;5.582;2023-11-18T10:55:04;13.23;;;5.80;;
12986;SDS011;58897;51.960;5.582;2023-11-18T10:57:39;10.43;;;4.93;;
12986;SDS011;58897;51.960;5.582;2023-11-18T11:00:08;10.13;;;5.17;;
12986;SDS011;58897;51.960;5.582;2023-11-18T11:02:45;14.17;;;5.57;;
12986;SDS011;58897;51.960;5.582;2023-11-18T11:05:29;10.73;;;4.60;;
12986;SDS011;58897;51.960;5.582;2023-11-18T11:07:59;13.80;;;5.17;;
12986;SDS011;58897;51.960;5.582;2023-11-18T11:10:26;10.97;;;4.70;;
12986;SDS011;58897;51.960;5.582;2023-11-18T11:12:55;12.70;;;5.53;;
12986;SDS011;58897;51.960;5.582;2023-11-18T11:15:31;9.83;;;4.67;;
12986;SDS011;58897;51.960;5.582;2023-11-18T11:18:20;15.00;;;5.90;;
12986;SDS011;58897;51.960;5.582;2023-11-18T11:20:57;10.50;;;4.70;;
12986;SDS011;58897;51.960;5.582;2023-11-18T11:26:40;11.17;;;4.57;;
12986;SDS011;58897;51.960;5.582;2023-11-18T11:32:11;13.07;;;4.77;;
12986;SDS011;58897;51.960;5.582;2023-11-18T11:34:50;7.83;;;4.03;;
12986;SDS011;58897;51.960;5.582;2023-11-18T11:37:21;11.03;;;4.60;;
12986;SDS011;58897;51.960;5.582;2023-11-18T11:39:52;12.03;;;4.70;;
12986;SDS011;58897;51.960;5.582;2023-11-18T11:42:20;12.80;;;4.13;;
12986;SDS011;58897;51.960;5.582;2023-11-18T11:44:48;15.03;;;4.83;;
12986;SDS011;58897;51.960;5.582;2023-11-18T11:47:21;12.40;;;4.03;;
12986;SDS011;58897;51.960;5.582;2023-11-18T11:49:54;5.17;;;2.83;;
12986;SDS011;58897;51.960;5.582;2023-11-18T11:52:31;10.80;;;3.60;;
12986;SDS011;58897;51.960;5.582;2023-11-18T11:55:10;21.27;;;5.53;;
12986;SDS011;58897;51.960;5.582;2023-11-18T11:57:51;20.57;;;5.63;;
12986;SDS011;58897;51.960;5.582;2023-11-18T12:00:25;17.20;;;5.27;;
12986;SDS011;58897;51.960;5.582;2023-11-18T12:03:01;22.67;;;5.63;;
12986;SDS011;58897;51.960;5.582;2023-11-18T12:05:31;18.30;;;5.23;;
12986;SDS011;58897;51.960;5.582;2023-11-18T12:08:01;18.87;;;4.87;;
12986;SDS011;58897;51.960;5.582;2023-11-18T12:10:39;9.73;;;4.07;;
12986;SDS011;58897;51.960;5.582;2023-11-18T12:13:17;19.20;;;5.03;;
12986;SDS011;58897;51.960;5.582;2023-11-18T12:15:55;14.67;;;4.13;;
12986;SDS011;58897;51.960;5.582;2023-11-18T12:18:31;15.43;;;4.30;;
12986;SDS011;58897;51.960;5.582;2023-11-18T12:21:03;11.80;;;4.00;;
12986;SDS011;58897;51.960;5.582;2023-11-18T12:23:30;18.70;;;4.73;;
12986;SDS011;58897;51.960;5.582;2023-11-18T12:26:01;20.27;;;5.13;;
12986;SDS011;58897;51.960;5.582;2023-11-18T12:28:31;13.60;;;3.93;;
12986;SDS011;58897;51.960;5.582;2023-11-18T12:31:02;7.53;;;2.93;;
12986;SDS011;58897;51.960;5.582;2023-11-18T12:42:01;16.10;;;4.50;;
12986;SDS011;58897;51.960;5.582;2023-11-18T12:44:46;8.90;;;3.10;;
12986;SDS011;58897;51.960;5.582;2023-11-18T12:47:42;8.33;;;3.03;;
12986;SDS011;58897;51.960;5.582;2023-11-18T12:50:11;15.90;;;4.43;;
12986;SDS011;58897;51.960;5.582;2023-11-18T12:52:44;11.83;;;3.17;;
12986;SDS011;58897;51.960;5.582;2023-11-18T12:55:12;11.37;;;3.93;;
12986;SDS011;58897;51.960;5.582;2023-11-18T12:57:46;14.17;;;4.10;;
12986;SDS011;58897;51.960;5.582;2023-11-18T13:00:17;13.17;;;3.47;;
12986;SDS011;58897;51.960;5.582;2023-11-18T13:02:54;12.23;;;4.10;;
12986;SDS011;58897;51.960;5.582;2023-11-18T13:05:21;18.37;;;4.77;;
12986;SDS011;58897;51.960;5.582;2023-11-18T13:07:47;22.33;;;5.97;;
12986;SDS011;58897;51.960;5.582;2023-11-18T13:10:15;13.30;;;4.63;;
12986;SDS011;58897;51.960;5.582;2023-11-18T13:12:43;7.60;;;3.47;;
12986;SDS011;58897;51.960;5.582;2023-11-18T13:15:11;19.67;;;5.07;;
12986;SDS011;58897;51.960;5.582;2023-11-18T13:17:38;17.03;;;4.13;;
12986;SDS011;58897;51.960;5.582;2023-11-18T13:20:15;9.70;;;2.67;;
12986;SDS011;58897;51.960;5.582;2023-11-18T13:22:44;8.47;;;2.87;;
12986;SDS011;58897;51.960;5.582;2023-11-18T13:25:14;10.40;;;3.40;;
12986;SDS011;58897;51.960;5.582;2023-11-18T13:27:40;14.50;;;4.30;;
12986;SDS011;58897;51.960;5.582;2023-11-18T13:30:07;7.47;;;2.63;;
12986;SDS011;58897;51.960;5.582;2023-11-18T13:32:43;9.97;;;3.37;;
12986;SDS011;58897;51.960;5.582;2023-11-18T13:35:10;15.30;;;4.13;;
12986;SDS011;58897;51.960;5.582;2023-11-18T13:37:42;9.17;;;2.80;;
12986;SDS011;58897;51.960;5.582;2023-11-18T13:40:11;10.93;;;3.40;;
12986;SDS011;58897;51.960;5.582;2023-11-18T13:42:44;8.00;;;2.93;;
12986;SDS011;58897;51.960;5.582;2023-11-18T13:45:14;6.70;;;2.27;;
12986;SDS011;58897;51.960;5.582;2023-11-18T13:48:01;17.77;;;4.10;;
12986;SDS011;58897;51.960;5.582;2023-11-18T13:50:28;8.87;;;3.00;;
12986;SDS011;58897;51.960;5.582;2023-11-18T13:52:56;10.37;;;3.73;;
12986;SDS011;58897;51.960;5.582;2023-11-18T13:55:23;12.57;;;3.43;;
12986;SDS011;58897;51.960;5.582;2023-11-18T13:57:54;9.40;;;2.57;;
12986;SDS011;58897;51.960;5.582;2023-11-18T14:00:27;14.63;;;4.23;;
12986;SDS011;58897;51.960;5.582;2023-11-18T14:03:00;9.10;;;2.67;;
12986;SDS011;58897;51.960;5.582;2023-11-18T14:05:32;12.93;;;3.40;;
12986;SDS011;58897;51.960;5.582;2023-11-18T14:08:00;17.70;;;4.07;;
12986;SDS011;58897;51.960;5.582;2023-11-18T14:10:26;16.40;;;3.97;;
12986;SDS011;58897;51.960;5.582;2023-11-18T14:13:01;13.67;;;3.80;;
12986;SDS011;58897;51.960;5.582;2023-11-18T14:15:29;17.37;;;5.10;;
12986;SDS011;58897;51.960;5.582;2023-11-18T14:17:56;31.20;;;8.63;;
12986;SDS011;58897;51.960;5.582;2023-11-18T14:20:24;13.87;;;3.93;;
12986;SDS011;58897;51.960;5.582;2023-11-18T14:22:50;10.13;;;3.87;;
12986;SDS011;58897;51.960;5.582;2023-11-18T14:25:21;13.47;;;3.73;;
12986;SDS011;58897;51.960;5.582;2023-11-18T14:27:50;14.77;;;3.70;;
12986;SDS011;58897;51.960;5.582;2023-11-18T14:30:17;15.77;;;4.33;;
12986;SDS011;58897;51.960;5.582;2023-11-18T14:32:44;8.67;;;2.50;;
12986;SDS011;58897;51.960;5.582;2023-11-18T14:35:11;21.53;;;4.90;;
12986;SDS011;58897;51.960;5.582;2023-11-18T14:37:43;14.47;;;3.40;;
12986;SDS011;58897;51.960;5.582;2023-11-18T14:40:11;13.97;;;3.57;;
12986;SDS011;58897;51.960;5.582;2023-11-18T14:42:43;6.63;;;2.87;;
12986;SDS011;58897;51.960;5.582;2023-11-18T14:45:14;14.03;;;4.30;;
12986;SDS011;58897;51.960;5.582;2023-11-18T14:47:41;9.90;;;3.30;;
12986;SDS011;58897;51.960;5.582;2023-11-18T14:50:11;21.47;;;5.37;;
12986;SDS011;58897;51.960;5.582;2023-11-18T14:52:50;10.27;;;2.60;;
12986;SDS011;58897;51.960;5.582;2023-11-18T14:55:18;10.37;;;2.77;;
12986;SDS011;58897;51.960;5.582;2023-11-18T14:57:45;10.43;;;3.07;;
12986;SDS011;58897;51.960;5.582;2023-11-18T15:00:13;22.60;;;5.27;;
12986;SDS011;58897;51.960;5.582;2023-11-18T15:02:48;12.00;;;3.20;;
12986;SDS011;58897;51.960;5.582;2023-11-18T15:05:19;17.83;;;4.33;;